Terminal Aerodrome Forecast
Issued by NWS

Home | Current Version | Previous Version | Text Only | Print | Product List | Glossary On
Versions: 1 2 3 4 5 6 7 8 9 10 11 12 13 14 15 16 17
000
FTUS46 KLOX 222300 RRA
TAFSBP
TAF
KSBP 222343Z 2300/2324 31014G20KT P6SM SKC
     FM230300 32007KT P6SM SCT250
     FM230900 VRB03KT 6SM BR BKN007
     FM231100 00000KT 4SM BR OVC004
     FM231500 VRB03KT 6SM BR BKN007
     FM231600 31008KT P6SM SKC
     FM232000 31019G27KT P6SM SKC=

USA.gov is the U.S. government's official web portal to all federal, state and local government web resources and services.